Tiempo atmosférico en la estación meteorológica de Don Benito, Badajoz (273 m.)



Fecha
DESCASC
Temp. máxima en grados centígrados (hora)
DESCASC
Temp. mínima en grados centígrados (hora)
DESCASC
Temp. media en grados centígrados
DESCASC
Racha de viento máxima en m/sg (hora)
DESCASC
Velocidad máxima media en intervalos de 10 minutos(hora)
DESCASC
Precipitaciones diarias en mm
DESCASC
Precipitaciones de 00:00 a 06:00 en mm
DESCASC
Precipitaciones de 06:00 a 12:00 en mm
DESCASC
Precipitaciones de 12:00 a 18:00 en mm
DESCASC
Precipitaciones de 18:00 a 24:00 en mm
DESCASC
22-04-2019 24.4 (17:00) 8.7 (08:10) 16.5 12.78 (16:50) 5 (17:20) 0 0 0 0 0
21-04-2019 20.6 (17:30) 8.6 (08:20) 14.6 9.17 (13:50) 3.61 (19:30) 0 0 0 0 0
20-04-2019 18.9 (16:40) 10.7 (04:50) 14.8 16.94 (21:30) 7.5 (21:30) 0.8 0 0.8 0 0
19-04-2019 20.6 (17:00) 9.8 (07:20) 15.2 13.61 (19:10) 5 (19:20) 3.2 0.4 0 2.4 0.4
18-04-2019 18.4 (13:20) 9.3 (00:00) 13.8 8.89 (22:20) 4.44 (21:20) 0.8 0 0 0 0.8
17-04-2019 22.6 (15:20) 12.4 (00:00) 17.5 11.67 (18:00) 6.94 (18:10) 0.2 0 0 0 0.2
16-04-2019 26.1 (19:50) 8.4 (00:00) 17.3 10.28 (18:20) 3.89 (18:40) 0 0 0 0 0
15-04-2019 23.4 (16:00) 14.4 (00:00) 18.9 10.28 (16:20) 5.28 (16:20) 0 0 0 0 0
14-04-2019 25 (18:40) 12.2 (00:00) 18.6 5.83 (18:30) 2.78 (03:10) 0 0 0 0 0
13-04-2019 24.7 (18:00) 9.2 (00:00) 17 8.61 (20:40) 3.06 (17:20) 0 0 0 0 0
12-04-2019 22.4 (19:30) 5.8 (00:00) 14.1 5.28 (16:20) 2.5 (16:40) 0 0 0 0 0
11-04-2019 20.7 (17:00) 5.9 (00:00) 13.3 7.78 (20:20) 3.61 (20:10) 0 0 0 0 0
10-04-2019 18.7 (18:20) 8 (00:00) 13.4 12.22 (17:20) 6.11 (17:40) 0 0 0 0 0
09-04-2019 17.4 (16:40) 7.7 (00:00) 12.5 16.11 (16:40) 6.39 (16:40) 1.2 0 1 0.2 0
08-04-2019 18.9 (18:10) 9.6 (00:00) 14.3 12.22 (20:50) 5.56 (16:20) 0.6 0 0.6 0 0
07-04-2019 14.1 (18:20) 8.2 (00:00) 11.2 11.11 (03:40) 5 (03:20) 4.4 0.2 0.6 0.2 3.4
06-04-2019 13.6 (15:30) 5.4 (00:00) 9.5 15.28 (15:40) 7.22 (15:40) 12.6 0 0 4.6 8
05-04-2019 13.4 (17:30) 6 (00:00) 9.7 15 (19:20) 8.06 (19:20) 8.6 3 4.8 0.6 0.2
04-04-2019 18.4 (17:40) 4 (00:00) 11.2 9.44 (20:10) 4.17 (19:40) 0 0 0 0 0
03-04-2019 20.4 (18:00) 8.1 (00:00) 14.3 13.61 (18:10) 5.56 (18:50) 0 0 0 0 0
02-04-2019 21.8 (17:40) 7.9 (00:00) 14.8 10.28 (18:20) 4.17 (18:20) 0 0 0 0 0
01-04-2019 18.7 (15:40) 12.1 (00:00) 15.4 9.17 (17:00) 3.89 (17:10) 4 0.2 2.6 1.2 0
31-03-2019 21.8 (17:00) 10.5 (00:00) 16.1 8.89 (17:10) 5 (17:10) 1 0 0.2 0 0.8
30-03-2019 23.4 (17:40) 9.4 (00:00) 16.4 8.89 (14:20) 3.61 (21:50) 0.8 0 0.4 0 0.4
29-03-2019 22.4 (17:40) 6.6 (00:00) 14.5 10.28 (14:50) 3.33 (15:50) 0 0 0 0 0
28-03-2019 22.2 (16:20) 6.7 (00:00) 14.5 10.83 (11:40) 5 (11:30) 0 0 0 0 0
27-03-2019 22.3 (16:10) 9 (00:00) 15.6 10.83 (15:50) 4.44 (14:40) 0 0 0 0 0
26-03-2019 26.4 (17:00) 10.8 (00:00) 18.6 13.06 (14:30) 6.39 (14:30) 0 0 0 0 0
25-03-2019 25.1 (16:50) 7.5 (00:00) 16.3 11.39 (15:10) 5 (14:30) 0 0 0 0 0

Gráficas

Temp. máximas Temp. mínimas Temp. medias Precipitaciones Rachas de viento máximas Velocidades máximas media en intervalos de 10 minutos

Datos horarios

Fecha y hora oficial Temperatura (ºC) Velocidad del viento (km/h) Dirección del viento Racha (km/h) Dirección de racha Precipitación (mm) Presión (hPa) Tendencia (hPa) Humedad (%)
2019-04-23 23:00:00 8.5 9 Sudoeste 29 Sudoeste 0 973.7 2.4 77
2019-04-23 22:00:00 9.4 12 Sudoeste 32 Sudoeste 0 972.8 1.4 70
2019-04-23 21:00:00 10.5 15 Sudoeste 36 Sudoeste 0 971.8 1.7 63
2019-04-23 20:00:00 11.7 16 Oeste 35 Sudoeste 0.4 971.3 1.3 66
2019-04-23 19:00:00 8.3 21 Sudoeste 58 Oeste 1.6 971.4 1.5 84
2019-04-23 18:00:00 11.5 16 Sudoeste 48 Sudoeste 0.2 970.1 0.6 69
2019-04-23 17:00:00 13.1 17 Oeste 52 Sudoeste 0 970 0.5 54
2019-04-23 16:00:00 13 12 Oeste 40 Oeste 0 969.9 0.5 58
2019-04-23 15:00:00 12.7 21 Oeste 49 Oeste 0.4 969.5 0.2 60
2019-04-23 14:00:00 11.5 21 Sudoeste 46 Oeste 0.2 969.5 0.6 65
2019-04-23 13:00:00 12.6 18 Oeste 41 Sudoeste 0 969.4 0.9 56
2019-04-23 12:00:00 12.4 19 Sudoeste 37 Sudoeste 0 969.3 1.4 58
2019-04-23 11:00:00 11.7 17 Sudoeste 36 Sudoeste 0 968.9 1.4 68
2019-04-23 10:00:00 9.7 12 Oeste 36 Oeste 0 968.5 1.4 82
2019-04-23 09:00:00 9.2 12 Oeste 29 Oeste 0 967.9 0.5 86
2019-04-23 08:00:00 9.1 11 Oeste 32 Oeste 0 967.5 0.1 87
2019-04-23 07:00:00 10 10 Oeste 25 Oeste 0 967.1 0.2 91
2019-04-23 06:00:00 10 9 Oeste 29 Sudoeste 1 967.4 0.1 93
2019-04-23 05:00:00 10.2 14 Sudoeste 40 Sudoeste 2 967.4 -0.4 90
2019-04-23 04:00:00 13.5 13 Sudoeste 36 Sudoeste 0.2 966.9 -0.6 76
2019-04-23 03:00:00 14.4 9 Sudoeste 34 Sudoeste 0 967.3 -0.7 67
2019-04-23 02:00:00 15 19 Sudoeste 33 Sudoeste 0 967.8 -0.1 64
2019-04-23 01:00:00 15.9 12 Sudoeste 34 Sudoeste 0 967.5 -0.2 64
2019-04-23 00:00:00 17 18 Sudoeste 36 Oeste 0 968 0.3 50
2019-04-22 23:00:00 18.1 15 Sudoeste 32 Sudoeste 0 967.9 0.1 41
2019-04-22 22:00:00 18.6 8 Sudoeste 26 Sudoeste 0 967.7 -0.3 35
2019-04-22 21:00:00 19.5 9 Oeste 38 Oeste 0 967.7 -0.5 32
2019-04-22 20:00:00 21 12 Oeste 34 Oeste 0 967.8 -0.9 28
2019-04-22 19:00:00 22.6 17 Oeste 38 Oeste 0 968 -1.4 24
2019-04-22 18:00:00 22.5 17 Sudoeste 43 Oeste 0 968.2 -2 27
2019-04-22 17:00:00 24.4 15 Oeste 46 Sudoeste 0 968.7 -2.5 22
2019-04-22 16:00:00 24 12 Oeste 31 Oeste 0 969.4 -2.8 27
2019-04-22 15:00:00 22.3 10 Oeste 25 Sudoeste 0 970.2 -2.7 32
2019-04-22 14:00:00 21.4 5 Sur 19 Oeste 0 971.2 -2 33
2019-04-22 13:00:00 19.8 6 Oeste 18 Noroeste 0 972.2 -1.3 40
2019-04-22 12:00:00 18.9 3 Sudeste 11 Sur 0 972.9 -0.3 42
2019-04-22 11:00:00 16.4 2 Este 6 Sudeste 0 973.2 0.2 53
2019-04-22 10:00:00 13.4 2 Este 5 Norte 0 973.5 0.6 62
2019-04-22 09:00:00 9.6 2 Nordeste 6 Sudeste 0 973.2 -0.3 82
2019-04-22 08:00:00 8.8 3 Sudeste 8 Sudeste 0 973 -1 80
2019-04-22 07:00:00 9.6 5 Sudeste 11 Sudeste 0 972.9 -1.7 79
2019-04-22 06:00:00 10.7 3 Sudeste 8 Sudeste 0 973.5 -1.7 72
2019-04-22 05:00:00 11.6 4 Este 9 Sudeste 0 974 -1.8 72
2019-04-22 04:00:00 12.1 0 Calma 7 Noroeste 0 974.6 -1.7 71
2019-04-22 03:00:00 13.5 4 Sudeste 12 Sudeste 0 975.2 -1.2 62
2019-04-22 02:00:00 14.7 5 Sudeste 15 Este 0 975.8 -0.5 55
2019-04-22 01:00:00 15.2 4 Este 9 Este 0 976.3 0.2 51
2019-04-22 00:00:00 15.2 0 Calma 5 Sur 0 976.4 0.5 53
2019-04-21 23:00:00 15.5 0 Calma 6 Sudeste 0 976.3 0.4 52
2019-04-21 22:00:00 16.4 2 Sudeste 12 Sudeste 0 976.1 0.3 48
2019-04-21 21:00:00 17.3 6 Este 16 Sudeste 0 975.9 -0.1 42
2019-04-21 20:00:00 17.7 9 Sudeste 24 Sudeste 0 975.9 -0.6 40
2019-04-21 19:00:00 18.3 12 Este 29 Nordeste 0 975.8 -1.2 38
2019-04-21 18:00:00 19.6 10 Nordeste 31 Nordeste 0 976 -1.2 33
2019-04-21 17:00:00 19.4 9 Nordeste 28 Este 0 976.5 -1.5 34
2019-04-21 16:00:00 19.9 8 Este 28 Este 0 977 -1.7 35
2019-04-21 15:00:00 19.5 9 Nordeste 29 Nordeste 0 977.2 -1.9 35
2019-04-21 14:00:00 18.9 11 Nordeste 33 Este 0 978 -1.4 39
2019-04-21 13:00:00 19.4 8 Nordeste 25 Nordeste 0 978.7 -1.3 38
2019-04-21 12:00:00 17.6 7 Norte 23 Nordeste 0 979.1 -1.4 48
2019-04-21 11:00:00 15.7 6 Este 22 Este 0 979.4 -0.7 51
2019-04-21 10:00:00 11.8 4 Nordeste 11 Nordeste 0 980 -0.1 65
2019-04-21 09:00:00 9.4 2 Nordeste 10 Nordeste 0 980.5 0 75
2019-04-21 08:00:00 9.2 2 Norte 9 Nordeste 0 980.1 -1 76
2019-04-21 07:00:00 9.7 3 Nordeste 11 Nordeste 0 980.1 -1.5 74
2019-04-21 06:00:00 10.6 4 Este 13 Nordeste 0 980.5 -1.8 70
2019-04-21 05:00:00 10.9 6 Nordeste 14 Nordeste 0 981.1 -2 70
2019-04-21 04:00:00 11.7 4 Nordeste 15 Nordeste 0 981.6 -1.8 67
2019-04-21 03:00:00 12.3 6 Nordeste 16 Nordeste 0 982.3 -1.2 68
2019-04-21 02:00:00 12.7 4 Norte 13 Norte 0 983.1 -0.4 74
2019-04-21 01:00:00 13.5 5 Norte 15 Nordeste 0 983.4 1.2 64
2019-04-21 00:00:00 13.1 2 Este 14 Sudeste 0 983.5 0.8 66
2019-04-20 23:00:00 14.1 4 Este 34 Este 0 983.5 1.1 61
2019-04-20 22:00:00 15 22 Este 61 Este 0 982.2 0.1 54
2019-04-20 21:00:00 15.8 17 Este 50 Este 0 982.7 0.7 53
2019-04-20 20:00:00 16.6 18 Este 35 Sudeste 0 982.4 0 54
2019-04-20 19:00:00 17.5 21 Sudeste 40 Sudeste 0 982.1 -0.8 51
2019-04-20 18:00:00 17.4 15 Este 30 Sudeste 0 982 -1.2 53
2019-04-20 17:00:00 18.5 12 Este 31 Sudeste 0 982.4 -0.8 48
2019-04-20 16:00:00 18.4 9 Este 29 Este 0 982.9 0 50
2019-04-20 15:00:00 18.2 14 Este 42 Este 0 983.2 0.2 52
2019-04-20 14:00:00 17 7 Nordeste 24 Norte 0 983.2 0.1 61
2019-04-20 13:00:00 16.5 4 Norte 16 Nordeste 0 982.9 -0.5 64
2019-04-20 12:00:00 14.5 6 Norte 16 Norte 0 983 -0.3 77
2019-04-20 11:00:00 13.2 4 Norte 9 Nordeste 0 983.1 -0.1 83
2019-04-20 10:00:00 11.5 2 Norte 7 Norte 0 983.4 0.1 91
2019-04-20 09:00:00 11 2 Sur 9 Nordeste 0.6 983.3 -0.3 91
2019-04-20 08:00:00 10.9 3 Norte 13 Norte 0.2 983.2 -0.8 89
2019-04-20 07:00:00 11 4 Nordeste 11 Nordeste 0 983.3 -1.2 83
2019-04-20 06:00:00 10.9 4 Nordeste 10 Nordeste 0 983.6 -1.3 81
2019-04-20 05:00:00 10.7 2 Nordeste 12 Nordeste 0 984 -1.4 80
2019-04-20 04:00:00 11 6 Nordeste 15 Este 0 984.5 -1 76
2019-04-20 03:00:00 11.1 7 Nordeste 16 Nordeste 0 984.9 -0.7 75
2019-04-20 02:00:00 11.6 8 Nordeste 21 Este 0 985.4 0.1 72
2019-04-20 01:00:00 12.7 10 Este 26 Sudeste 0 985.5 1.2 68
2019-04-20 00:00:00 13.2 6 Este 19 Este 0 985.6 2.1 70
2019-04-19 23:00:00 13.5 7 Este 21 Nordeste 0 985.3 2.5 71
2019-04-19 22:00:00 13.8 10 Nordeste 30 Nordeste 0 984.3 2.4 71
2019-04-19 21:00:00 14.3 10 Nordeste 32 Sudeste 0 983.5 1.9 67
2019-04-19 20:00:00 15 13 Este 49 Nordeste 0 982.8 1.4 64
2019-04-19 19:00:00 15.9 10 Nordeste 35 Este 0.4 981.9 -0.1 69
2019-04-19 18:00:00 16 6 Nordeste 35 Nordeste 2.4 981.6 -0.4 71
2019-04-19 17:00:00 20.6 6 Nordeste 22 Nordeste 0 981.4 -1.4 40
2019-04-19 16:00:00 20.2 7 Nordeste 17 Nordeste 0 982 -1.5 40
2019-04-19 15:00:00 18.8 5 Nordeste 17 Este 0 982 -1.5 49
2019-04-19 14:00:00 17.6 6 Este 20 Sudeste 0 982.8 -0.3 51
2019-04-19 13:00:00 16.6 6 Nordeste 20 Nordeste 0 983.5 0.8 63
2019-04-19 12:00:00 14 4 Nordeste 10 Nordeste 0 983.5 1.3 74
2019-04-19 11:00:00 12.3 2 Norte 7 Noroeste 0 983.1 1.5 81
2019-04-19 10:00:00 12.1 2 Este 8 Sudoeste 0 982.7 1.6 81
2019-04-19 09:00:00 11.3 4 Sudoeste 10 Sudoeste 0 982.2 0.9 90
2019-04-19 08:00:00 10.5 5 Sur 9 Sudoeste 0 981.6 0.2 91
2019-04-19 07:00:00 10.1 4 Sur 8 Sudeste 0 981.1 -0.2 92
2019-04-19 06:00:00 10.4 3 Sur 7 Sudeste 0 981.3 -0.3 93
2019-04-19 05:00:00 10.6 4 Sur 8 Sur 0 981.4 -0.4 93
2019-04-19 04:00:00 10.6 2 Sudoeste 7 Sudoeste 0 981.3 -0.7 92
2019-04-19 03:00:00 10.6 4 Sudoeste 12 Oeste 0 981.6 -0.4 92
2019-04-19 02:00:00 11.2 5 Oeste 13 Sudoeste 0 981.8 -0.2 89
2019-04-19 01:00:00 11.3 5 Oeste 18 Sudoeste 0.4 982 1.1 90
2019-04-19 00:00:00 11.6 9 Oeste 23 Oeste 0.8 982 2.1 87
2019-04-18 23:00:00 12 12 Oeste 32 Sudoeste 0 982 2.2 83
2019-04-18 22:00:00 13.8 13 Sudoeste 31 Sudoeste 0 980.9 1.5 60
2019-04-18 21:00:00 15.8 9 Sur 23 Sur 0 979.9 0.7 51
2019-04-18 20:00:00 17.1 3 Norte 12 Norte 0 979.8 0.1 46
2019-04-18 19:00:00 17.2 4 Norte 12 Oeste 0 979.4 -0.8 49
2019-04-18 18:00:00 16.5 5 Oeste 14 Sudoeste 0 979.2 -1 51
2019-04-18 17:00:00 16.3 4 Oeste 15 Oeste 0 979.7 -0.3 55
2019-04-18 16:00:00 15.9 10 Oeste 24 Sudoeste 0 980.2 -0.5 57
2019-04-18 15:00:00 16.2 8 Noroeste 19 Noroeste 0 980.2 -1.1 52
2019-04-18 14:00:00 17.3 6 Norte 14 Norte 0 980 -1.4 51
2019-04-18 13:00:00 16.7 4 Noroeste 14 Noroeste 0 980.7 -0.4 54
2019-04-18 12:00:00 15.9 4 Nordeste 12 Norte 0 981.3 0.3 60
2019-04-18 11:00:00 13.9 2 Sudeste 5 Este 0 981.4 1 68
2019-04-18 10:00:00 10.1 2 Este 8 Sur 0 981.1 0.8 84
2019-04-18 09:00:00 9.3 5 Sudeste 9 Sudeste 0 981 0.6 83
2019-04-18 08:00:00 9.6 0 Calma 6 Sudeste 0 980.4 0 84
2019-04-18 07:00:00 10 4 Sudeste 7 Sudeste 0 980.3 -0.4 82
2019-04-18 06:00:00 10.6 3 Sur 6 Sur 0 980.4 -1.1 79
2019-04-18 05:00:00 11.1 3 Sudeste 6 Sudeste 0 980.4 -1.1 78
2019-04-18 04:00:00 12 3 Sudeste 8 Sur 0 980.7 -0.7 74
2019-04-18 03:00:00 12.8 3 Sur 13 Sudoeste 0 981.5 0.4 71
2019-04-18 02:00:00 12.7 4 Sur 14 Sur 0 981.5 0.8 70
2019-04-18 01:00:00 13.1 3 Sur 21 Sudoeste 0 981.4 2.1 71
2019-04-18 00:00:00 13.6 8 Sudoeste 17 Sudoeste 0 981.1 2.2 72
2019-04-17 23:00:00 13.7 6 Sudoeste 24 Sudoeste 0.2 980.7 2 74
2019-04-17 22:00:00 15.3 11 Sur 35 Sudoeste 0 979.3 1.1 54
2019-04-17 21:00:00 15.6 13 Sudoeste 30 Sudoeste 0 978.9 2.3 53
2019-04-17 20:00:00 15.5 8 Oeste 30 Oeste 0 978.7 1.8 64
2019-04-17 19:00:00 15.6 16 Oeste 42 Sudoeste 0 978.2 1 66
2019-04-17 18:00:00 20.9 21 Sur 42 Sudoeste 0 976.6 -0.8 41
2019-04-17 17:00:00 21.7 21 Sur 41 Sudoeste 0 976.9 -1.1 37
2019-04-17 16:00:00 22.4 19 Sur 37 Sudoeste 0 977.2 -1.5 32
2019-04-17 15:00:00 21.8 18 Sudoeste 34 Sudoeste 0 977.4 -1.7 32
2019-04-17 14:00:00 20.3 3 Nordeste 12 Sudeste 0 978 -0.9 39
2019-04-17 13:00:00 19.5 3 Sudeste 9 Nordeste 0 978.7 -0.2 37
2019-04-17 12:00:00 18 2 Este 9 Este 0 979.1 0.1 43
2019-04-17 11:00:00 15.9 4 Este 8 Este 0 978.9 0.4 48
2019-04-17 10:00:00 14.1 2 Nordeste 7 Este 0 978.9 0.2 56
2019-04-17 09:00:00 13.2 2 Sudeste 9 Este 0 979 0.1 57
2019-04-17 08:00:00 13 3 Nordeste 6 Nordeste 0 978.5 -0.3 58
2019-04-17 07:00:00 12.6 0 Calma 8 Este 0 978.7 -0.4 58
2019-04-17 06:00:00 13.5 5 Sudeste 18 Sudeste 0 978.9 -0.9 52
2019-04-17 05:00:00 14 14 Sudeste 25 Sudeste 0 978.8 -1.1 56
2019-04-17 04:00:00 15.5 9 Sudeste 17 Sudeste 0 979.1 -1.1 52
2019-04-17 03:00:00 15.4 7 Sudeste 17 Sudeste 0 979.8 -0.7 50
2019-04-17 02:00:00 16 10 Sudeste 18 Sudeste 0 979.9 -0.2 47
2019-04-17 01:00:00 16.9 6 Sudeste 11 Sudeste 0 980.2 0.4 44
2019-04-17 00:00:00 17.8 5 Sudeste 14 Sur 0 980.5 1.2 37
2019-04-16 23:00:00 19.1 5 Sur 19 Sur 0 980.1 1 30
2019-04-16 22:00:00 20.8 9 Sur 23 Sur 0 979.8 0.1 24
2019-04-16 21:00:00 22.9 6 Sur 22 Sudeste 0 979.3 -1.1 22
2019-04-16 20:00:00 25.7 8 Sur 26 Sudeste 0 979.1 -2.4 16
2019-04-16 19:00:00 25.7 10 Sudeste 37 Sudeste 0 979.7 -3 20
2019-04-16 18:00:00 25.2 13 Este 33 Sudeste 0 980.4 -3.5 19
2019-04-16 17:00:00 25 9 Sudeste 28 Sudeste 0 981.5 -3.3 21
2019-04-16 16:00:00 23.8 10 Este 29 Este 0 982.7 -3 25
2019-04-16 15:00:00 22.8 9 Sudeste 32 Sudeste 0 983.9 -2.4 26
2019-04-16 14:00:00 21.1 13 Sudeste 24 Sudeste 0 984.8 -1.5 31
2019-04-16 13:00:00 20 7 Este 25 Sudeste 0 985.7 -0.9 39
2019-04-16 12:00:00 18 7 Este 18 Este 0 986.3 0 48
2019-04-16 11:00:00 15.1 3 Nordeste 10 Nordeste 0 986.3 0.3 63
2019-04-16 10:00:00 12.1 3 Norte 6 Nordeste 0 986.6 0.6 75
2019-04-16 09:00:00 8.9 0 Calma 4 Sur 0 986.3 0.1 84
2019-04-16 08:00:00 8.4 3 Sudeste 10 Sudoeste 0 986 -0.4 84
2019-04-16 07:00:00 9.4 4 Sudoeste 9 Oeste 0 986 -0.6 86
2019-04-16 06:00:00 10 3 Oeste 8 Sudoeste 0 986.2 -0.8 83
2019-04-16 05:00:00 10.4 5 Sudoeste 14 Sudoeste 0 986.4 0.1 79
2019-04-16 04:00:00 10.8 8 Sudoeste 13 Sudoeste 0 986.6 0.7 78
2019-04-16 03:00:00 11.4 7 Sudoeste 13 Sudoeste 0 987 1.5 74
2019-04-16 02:00:00 12.4 4 Sudoeste 10 Sudoeste 0 986.3 1.4 67
2019-04-16 01:00:00 12.7 5 Sur 10 Sudoeste 0 985.9 1.9 66
2019-04-16 00:00:00 14.5 3 Oeste 13 Oeste 0 985.5 2.2 61
2019-04-15 23:00:00 15.7 4 Oeste 18 Oeste 0 984.9 2 57
2019-04-15 22:00:00 16.7 4 Oeste 11 Oeste 0 984 1.3 51
2019-04-15 21:00:00 18.6 6 Oeste 30 Noroeste 0 983.3 0.7 42
2019-04-15 20:00:00 19.9 10 Oeste 32 Oeste 0 982.9 1.6 40
2019-04-15 19:00:00 19.5 12 Oeste 34 Noroeste 0 982.7 1.3 50
2019-04-15 18:00:00 19 14 Oeste 37 Oeste 0 982.6 1.1 51
2019-04-15 17:00:00 22.6 13 Oeste 37 Sudoeste 0 981.3 -0.1 36
2019-04-15 16:00:00 23 15 Oeste 35 Oeste 0 981.4 -0.2 28
2019-04-15 15:00:00 22.7 15 Oeste 35 Sudoeste 0 981.5 -0.1 38
2019-04-15 14:00:00 22.3 14 Oeste 31 Sudoeste 0 981.4 0.1 42
2019-04-15 13:00:00 21.3 11 Oeste 32 Oeste 0 981.6 0.5 52
2019-04-15 12:00:00 19.6 8 Oeste 26 Oeste 0 981.6 0.9 59
2019-04-15 11:00:00 18.4 9 Oeste 21 Oeste 0 981.3 1.6 64
2019-04-15 10:00:00 15.8 6 Sudoeste 11 Sudoeste 0 981.1 1.3 75
2019-04-15 09:00:00 14.6 4 Noroeste 10 Nordeste 0 980.7 0.4 80
2019-04-15 08:00:00 15.6 3 Este 17 Sudeste 0 979.7 -1.1 73
2019-04-15 07:00:00 16 6 Sudeste 15 Sudeste 0 979.8 -1.3 70
2019-04-15 06:00:00 15.5 6 Sudeste 12 Sudeste 0 980.3 -1.9 73
2019-04-15 05:00:00 16 2 Este 8 Sudeste 0 980.8 -1.6 72
2019-04-15 04:00:00 16.9 2 Nordeste 14 Sudeste 0 981.1 -1.8 68
2019-04-15 03:00:00 17.6 12 Sudeste 21 Sudeste 0 982.2 -0.7 64
2019-04-15 02:00:00 18.5 12 Sudeste 21 Sudeste 0 982.4 -0.6 62
2019-04-15 01:00:00 18.6 11 Sudeste 18 Sudeste 0 982.9 -0.1 61
2019-04-15 00:00:00 18.8 8 Sudeste 15 Sudeste 0 982.9 0.1 62
2019-04-14 23:00:00 19.7 7 Sudeste 14 Sudeste 0 983 0.1 56
2019-04-14 22:00:00 21.2 3 Sudeste 4 Sudeste 0 983 -0.4 51
2019-04-14 21:00:00 22.7 0 Calma 5 Norte 0 982.8 -0.9 46
2019-04-14 20:00:00 24 3 Nordeste 12 Oeste 0 982.9 -1.6 40
2019-04-14 19:00:00 24.6 4 Noroeste 21 Oeste 0 983.4 -2.1 39
2019-04-14 18:00:00 24.1 3 Noroeste 16 Noroeste 0 983.7 -2.3 41
2019-04-14 17:00:00 23.7 6 Oeste 13 Noroeste 0 984.5 -2.1 42
2019-04-14 16:00:00 22.2 5 Nordeste 16 Noroeste 0 985.5 -1.6 50
2019-04-14 15:00:00 21.3 5 Oeste 17 Noroeste 0 986 -1.3 53
2019-04-14 14:00:00 19.1 6 Noroeste 14 Noroeste 0 986.6 -0.6 64
2019-04-14 13:00:00 17.4 6 Noroeste 13 Noroeste 0 987.1 0 71
2019-04-14 12:00:00 16.7 4 Oeste 12 Sudoeste 0 987.3 0.6 73
2019-04-14 11:00:00 15 6 Oeste 13 Sudoeste 0 987.2 0.8 84
2019-04-14 10:00:00 13.8 3 Oeste 9 Sudoeste 0 987.1 0.8 90
2019-04-14 09:00:00 13 3 Sudoeste 10 Oeste 0 986.7 0 94
2019-04-14 08:00:00 12.3 5 Sudoeste 10 Sur 0 986.4 -0.5 92
2019-04-14 07:00:00 12.7 6 Sudoeste 16 Sudoeste 0 986.3 -0.8 93
2019-04-14 06:00:00 12.9 8 Sudoeste 15 Sudoeste 0 986.7 -0.6 93
2019-04-14 05:00:00 13.3 7 Oeste 15 Sudoeste 0 986.9 -0.5 89
2019-04-14 04:00:00 13.9 7 Sudoeste 17 Sudoeste 0 987.1 -0.3 85
2019-04-14 03:00:00 14.5 8 Sudoeste 19 Sudoeste 0 987.3 -0.2 81
2019-04-14 02:00:00 15.2 8 Sudoeste 17 Sudoeste 0 987.4 0 75
2019-04-14 01:00:00 15.3 6 Sudoeste 14 Oeste 0 987.4 0.5 62
2019-04-14 00:00:00 15.8 6 Sudoeste 11 Oeste 0 987.5 1.3 53
2019-04-13 23:00:00 17.1 4 Oeste 15 Oeste 0 987.4 1.5 46
2019-04-13 22:00:00 18.2 6 Oeste 21 Oeste 0 986.9 1.2 40
2019-04-13 21:00:00 20.1 9 Oeste 31 Oeste 0 986.2 0.6 31
2019-04-13 20:00:00 23.4 9 Oeste 26 Noroeste 0 985.9 0 20
2019-04-13 19:00:00 24.3 10 Oeste 28 Sudoeste 0 985.7 -0.8 16
2019-04-13 18:00:00 24.7 8 Oeste 27 Sudoeste 0 985.6 -1.2 18
2019-04-13 17:00:00 24.1 9 Oeste 23 Oeste 0 985.9 -1.4 22
2019-04-13 16:00:00 23.6 7 Oeste 25 Oeste 0 986.5 -1.2 21
2019-04-13 15:00:00 22.6 7 Noroeste 23 Noroeste 0 986.8 -1.2 26
2019-04-13 14:00:00 21.9 10 Sudoeste 21 Sudoeste 0 987.3 -0.6 23
2019-04-13 13:00:00 20.4 7 Sudoeste 17 Oeste 0 987.7 0 38
2019-04-13 12:00:00 17.5 8 Oeste 19 Oeste 0 988 0.5 53
2019-04-13 11:00:00 15 8 Sudoeste 17 Sudoeste 0 987.9 1 59
2019-04-13 10:00:00 12.3 9 Sudoeste 17 Sudoeste 0 987.7 0.9 68
2019-04-13 09:00:00 10 8 Sudoeste 16 Sudoeste 0 987.5 1.2 70
2019-04-13 08:00:00 9.3 6 Sudoeste 15 Oeste 0 986.9 0.8 71
2019-04-13 07:00:00 9.7 8 Sudoeste 19 Sudoeste 0 986.8 0.5 68
2019-04-13 06:00:00 9.8 8 Sudoeste 13 Sudoeste 0 986.3 0 62
2019-04-13 05:00:00 10.1 6 Sudoeste 12 Sudoeste 0 986.1 -0.4 60
2019-04-13 04:00:00 10.7 7 Sudoeste 24 Noroeste 0 986.3 0.1 53
2019-04-13 03:00:00 11.4 8 Sur 13 Sudoeste 0 986.3 -0.1 48
2019-04-13 02:00:00 11 4 Sur 10 Sudeste 0 986.5 0.6 51
2019-04-13 01:00:00 12.1 8 Sur 10 Sudeste 0 986.2 0.9 45
2019-04-13 00:00:00 13.4 5 Sur 11 Sur 0 986.4 1.6 43
2019-04-12 23:00:00 15.3 2 Noroeste 9 Noroeste 0 985.9 1.2 35
2019-04-12 22:00:00 16.7 4 Noroeste 13 Noroeste 0 985.3 0.5 30
2019-04-12 21:00:00 19.5 6 Noroeste 17 Noroeste 0 984.8 -0.1 26
2019-04-12 20:00:00 21.5 5 Oeste 17 Noroeste 0 984.7 -0.7 24
2019-04-12 19:00:00 21.9 3 Norte 19 Noroeste 0 984.8 -1.2 21
2019-04-12 18:00:00 21.8 4 Oeste 19 Sudoeste 0 984.9 -1.7 20
2019-04-12 17:00:00 21.3 8 Oeste 19 Noroeste 0 985.4 -1.5 22
2019-04-12 16:00:00 21 6 Noroeste 19 Noroeste 0 986 -1.4 22
2019-04-12 15:00:00 20.4 6 Nordeste 13 Norte 0 986.6 -1.1 26
2019-04-12 14:00:00 19.4 5 Este 13 Este 0 986.9 -0.7 25
2019-04-12 13:00:00 18.6 4 Sudeste 12 Nordeste 0 987.4 0 30
2019-04-12 12:00:00 15.9 4 Norte 12 Nordeste 0 987.7 0.4 43
2019-04-12 11:00:00 13.9 3 Este 9 Este 0 987.6 0.7 50
2019-04-12 10:00:00 10.4 3 Este 6 Sudeste 0 987.4 1 64
2019-04-12 09:00:00 6.9 0 Calma 5 Nordeste 0 987.3 0.9 83
2019-04-12 08:00:00 6 0 Calma 3 Sur 0 986.9 0.6 80
2019-04-12 07:00:00 6.6 0 Calma 5 Sur 0 986.4 0 72
2019-04-12 06:00:00 7 0 Calma 5 Sur 0 986.4 0 74
2019-04-12 05:00:00 7.7 2 Sur 5 Sudeste 0 986.3 -0.2 72
2019-04-12 04:00:00 8.6 3 Noroeste 6 Sudeste 0 986.4 -0.1 68
2019-04-12 03:00:00 9.5 0 Calma 10 Sur 0 986.4 0 62
2019-04-12 02:00:00 10.5 5 Sur 9 Sur 0 986.5 0.4 55
2019-04-12 01:00:00 11.1 2 Sudeste 9 Noroeste 0 986.5 0.8 55
2019-04-12 00:00:00 12.3 3 Noroeste 10 Noroeste 0 986.4 1.1 50
2019-04-11 23:00:00 13.5 3 Oeste 9 Oeste 0 986.1 1.1 46
2019-04-11 22:00:00 14.7 4 Oeste 12 Noroeste 0 985.7 0.5 41
2019-04-11 21:00:00 17.2 5 Noroeste 28 Noroeste 0 985.3 0.1 30
2019-04-11 20:00:00 19.5 8 Noroeste 26 Noroeste 0 985 -0.4 25
2019-04-11 19:00:00 20.2 9 Oeste 23 Noroeste 0 985.2 -0.8 24
2019-04-11 18:00:00 19.1 8 Noroeste 26 Norte 0 985.2 -1.4 27
2019-04-11 17:00:00 20.2 5 Norte 23 Oeste 0 985.4 -1.8 26
2019-04-11 16:00:00 19.4 9 Oeste 27 Oeste 0 986 -1.8 29
2019-04-11 15:00:00 18.8 8 Sudoeste 17 Oeste 0 986.6 -1.3 32
2019-04-11 14:00:00 17.2 5 Noroeste 14 Oeste 0 987.2 -0.5 37
2019-04-11 13:00:00 15.1 5 Norte 9 Norte 0 987.8 0.3 49
2019-04-11 12:00:00 13.5 4 Noroeste 11 Sudoeste 0 987.9 0.8 58
2019-04-11 11:00:00 11.2 5 Oeste 13 Oeste 0 987.7 0.9 71
2019-04-11 10:00:00 9.1 8 Sudoeste 14 Sudoeste 0 987.5 0.9 82
2019-04-11 09:00:00 6.3 8 Sudoeste 13 Sudoeste 0 987.1 0.6 92
2019-04-11 08:00:00 6 8 Sudoeste 10 Sudoeste 0 986.8 0.5 90
2019-04-11 07:00:00 6.5 6 Sudoeste 17 Sudoeste 0 986.6 0.5 89
2019-04-11 06:00:00 6.7 6 Sudoeste 12 Sudoeste 0 986.5 0.3 86
2019-04-11 05:00:00 7.6 5 Oeste 15 Oeste 0 986.3 0.3 81
2019-04-11 04:00:00 8.5 4 Oeste 12 Oeste 0 986.1 0.2 75
2019-04-11 03:00:00 9.3 9 Sudoeste 16 Sudoeste 0 986.2 0.4 72
2019-04-11 02:00:00 10.5 5 Oeste 15 Oeste 0 986 0.6 63
2019-04-11 01:00:00 11.1 6 Oeste 20 Noroeste 0 985.9 1.2 62
2019-04-11 00:00:00 12.1 9 Noroeste 16 Noroeste 0 985.8 2.1 62
2019-04-10 23:00:00 13.3 6 Oeste 21 Noroeste 0 985.4 2 57
2019-04-10 22:00:00 14.2 5 Oeste 25 Oeste 0 984.7 1.7 53
2019-04-10 21:00:00 16.1 12 Noroeste 33 Noroeste 0 983.7 0.6 40
2019-04-10 20:00:00 17.3 18 Noroeste 40 Noroeste 0 983.4 -0.2 36
2019-04-10 19:00:00 18.4 17 Noroeste 44 Noroeste 0 983 -1.3 32
2019-04-10 18:00:00 18.1 19 Noroeste 44 Noroeste 0 983.1 -1.4 33
2019-04-10 17:00:00 17.9 19 Noroeste 41 Noroeste 0 983.6 -1.4 33
2019-04-10 16:00:00 17.4 19 Noroeste 39 Noroeste 0 984.3 -1.3 36
2019-04-10 15:00:00 17.4 18 Noroeste 41 Noroeste 0 984.5 -1.2 38
2019-04-10 14:00:00 15.5 14 Noroeste 33 Noroeste 0 985 -0.8 46
2019-04-10 13:00:00 14.7 11 Oeste 29 Noroeste 0 985.6 0 53
2019-04-10 12:00:00 13.2 10 Oeste 28 Oeste 0 985.7 0.2 67
2019-04-10 11:00:00 10.5 9 Oeste 26 Oeste 0 985.8 0.7 81
2019-04-10 10:00:00 8.8 9 Oeste 26 Oeste 0 985.6 0.6 90
2019-04-10 09:00:00 8.3 10 Oeste 25 Oeste 0 985.5 0.6 91
2019-04-10 08:00:00 8.3 7 Oeste 26 Oeste 0 985.1 -0.3 92
2019-04-10 07:00:00 8.3 11 Oeste 31 Oeste 0 985 -0.1 92
2019-04-10 06:00:00 8.4 11 Oeste 30 Oeste 0 984.9 -0.5 91
2019-04-10 05:00:00 8.2 7 Oeste 19 Oeste 0 985.4 0 91
2019-04-10 04:00:00 8.5 8 Oeste 21 Oeste 0 985.1 -0.2 88
2019-04-10 03:00:00 8.9 8 Oeste 23 Oeste 0 985.4 0.2 83
2019-04-10 02:00:00 9.4 10 Oeste 23 Oeste 0 985.4 0.6 80
2019-04-10 01:00:00 10 10 Oeste 25 Oeste 0 985.3 1.2 77
2019-04-10 00:00:00 10.8 11 Oeste 25 Sudoeste 0 985.2 1.5 74
2019-04-09 23:00:00 11.5 7 Oeste 18 Noroeste 0 984.8 1.9 73
2019-04-09 22:00:00 12.3 9 Noroeste 35 Noroeste 0 984.1 1.4 66
2019-04-09 21:00:00 13.9 15 Oeste 44 Noroeste 0 983.7 0.7 62
2019-04-09 20:00:00 16.4 14 Oeste 39 Oeste 0 982.9 -0.6 44
2019-04-09 19:00:00 16.9 15 Oeste 49 Oeste 0 982.7 -0.9 40
2019-04-09 18:00:00 16.4 16 Oeste 40 Oeste 0 983 -1 49
2019-04-09 17:00:00 14.8 13 Oeste 58 Noroeste 0 983.5 -0.5 56
2019-04-09 16:00:00 16.3 17 Oeste 50 Sudoeste 0 983.6 -1 52
2019-04-09 15:00:00 13.2 20 Oeste 55 Oeste 0.2 984 -1 72
2019-04-09 14:00:00 14.7 18 Oeste 46 Oeste 0 984 -0.7 55
2019-04-09 13:00:00 13.7 18 Oeste 46 Oeste 0 984.6 -0.1 64
2019-04-09 12:00:00 12.2 12 Oeste 32 Sudoeste 0.2 985 0.5 77
2019-04-09 11:00:00 10.8 16 Oeste 36 Sudoeste 0.4 984.7 0.4 83
2019-04-09 10:00:00 10.5 14 Sudoeste 29 Oeste 0.4 984.7 0.6 88
2019-04-09 09:00:00 8.9 6 Sudoeste 16 Oeste 0 984.5 0.2 91
2019-04-09 08:00:00 9 10 Sudoeste 26 Sudoeste 0 984.3 -0.1 91
2019-04-09 07:00:00 8.8 10 Sudoeste 21 Sudoeste 0 984.1 -0.5 92
2019-04-09 06:00:00 8.6 6 Sudoeste 14 Oeste 0 984.3 -0.3 90
2019-04-09 05:00:00 8.5 3 Oeste 11 Oeste 0 984.4 -0.1 91
2019-04-09 04:00:00 7.7 2 Oeste 8 Oeste 0 984.6 0.2 89
2019-04-09 03:00:00 8.2 3 Sudoeste 9 Sudoeste 0 984.6 0.2 88
2019-04-09 02:00:00 8.7 6 Sudoeste 15 Sudoeste 0 984.5 0.4 87
2019-04-09 01:00:00 9.1 7 Sudoeste 14 Sudoeste 0 984.4 0.9 86
2019-04-09 00:00:00 9.6 7 Sudoeste 12 Sudoeste 0 984.4 1.6 84
2019-04-08 23:00:00 10.8 5 Sudoeste 16 Noroeste 0 984.1 2.3 78
2019-04-08 22:00:00 11.8 5 Oeste 40 Noroeste 0 983.5 1.8 74
2019-04-08 21:00:00 12.9 17 Oeste 44 Sudoeste 0 982.8 1 65
2019-04-08 20:00:00 17.2 9 Oeste 26 Oeste 0 981.8 -0.3 41
2019-04-08 19:00:00 18.2 11 Oeste 29 Oeste 0 981.7 -0.8 34
2019-04-08 18:00:00 18.7 10 Oeste 35 Oeste 0 981.8 -1.2 33
2019-04-08 17:00:00 18.2 16 Oeste 42 Sudoeste 0 982.1 -1.1 35
2019-04-08 16:00:00 18.1 14 Oeste 37 Oeste 0 982.5 -0.9 43
2019-04-08 15:00:00 17.3 16 Oeste 40 Oeste 0 983 -0.4 50
2019-04-08 14:00:00 16.5 12 Oeste 34 Sudoeste 0 983.2 -0.1 56
2019-04-08 13:00:00 16.1 9 Oeste 27 Oeste 0 983.4 0.3 64
2019-04-08 12:00:00 15.7 12 Oeste 23 Sudoeste 0.2 983.4 0.8 71
2019-04-08 11:00:00 13.4 10 Sudoeste 23 Oeste 0 983.3 1 84
2019-04-08 10:00:00 12.3 10 Sudoeste 19 Oeste 0 983.1 1.5 92
2019-04-08 09:00:00 11.7 7 Sudoeste 17 Oeste 0 982.6 0.7 93
2019-04-08 08:00:00 11.7 12 Oeste 27 Oeste 0 982.3 0 91
2019-04-08 07:00:00 11.5 11 Sudoeste 26 Sur 0.4 981.6 -0.7 91
2019-04-08 06:00:00 11.7 8 Sudoeste 17 Sudoeste 0 981.9 -0.6 90
2019-04-08 05:00:00 11.6 5 Sudoeste 9 Sudoeste 0 982.3 -0.4 93
2019-04-08 04:00:00 11.8 5 Oeste 16 Sudoeste 0 982.3 -0.4 92
2019-04-08 03:00:00 12.1 10 Sudoeste 18 Sudoeste 0 982.5 -0.3 92
2019-04-08 02:00:00 12.3 9 Sudoeste 26 Sudoeste 0 982.7 -0.1 93
2019-04-08 01:00:00 12.4 8 Sudoeste 16 Sur 0 982.7 0.6 94
2019-04-08 00:00:00 12 7 Sudoeste 11 Sudoeste 0.2 982.8 0.9 94
2019-04-07 23:00:00 12.4 6 Sudoeste 15 Sudoeste 0 982.8 1.2 94
2019-04-07 22:00:00 12.6 5 Sudoeste 12 Oeste 1.6 982.1 0.8 94
2019-04-07 21:00:00 13 3 Oeste 12 Oeste 1.6 981.9 0.6 93
2019-04-07 20:00:00 13.6 7 Sudoeste 18 Sudoeste 0 981.6 -0.2 85
2019-04-07 19:00:00 13.8 11 Sur 26 Sudoeste 0 981.3 -1 78
2019-04-07 18:00:00 13.8 12 Sur 27 Sudoeste 0 981.3 -1.3 75
2019-04-07 17:00:00 13.5 11 Sudoeste 27 Sudoeste 0 981.8 -0.7 75
2019-04-07 16:00:00 12.3 7 Sur 24 Sudoeste 0.2 982.3 -0.4 81
2019-04-07 15:00:00 12.8 9 Sudoeste 23 Oeste 0 982.6 0.4 72
2019-04-07 14:00:00 12.8 12 Sudoeste 22 Sudoeste 0 982.5 0.6 66
2019-04-07 13:00:00 12.2 11 Sudoeste 27 Sudoeste 0 982.7 1.3 75
2019-04-07 12:00:00 11.2 15 Sudoeste 26 Sudoeste 0 982.2 1.5 83
2019-04-07 11:00:00 9.7 4 Oeste 13 Noroeste 0.2 981.9 1.9 93
2019-04-07 10:00:00 9 4 Oeste 15 Sudoeste 0.2 981.4 1.9 93
2019-04-07 09:00:00 8.6 6 Sudoeste 14 Oeste 0 980.7 1.4 93
2019-04-07 08:00:00 8.2 6 Oeste 22 Oeste 0 980 0.9 91
2019-04-07 07:00:00 8.5 11 Oeste 23 Sudoeste 0.2 979.5 0.7 92
2019-04-07 06:00:00 8.7 11 Oeste 32 Sudoeste 0.2 979.3 0.9 89
2019-04-07 05:00:00 8.9 12 Oeste 37 Oeste 0 979.1 0.6 86
2019-04-07 04:00:00 8.9 13 Oeste 40 Oeste 0 978.8 0.5 84
2019-04-07 03:00:00 8.7 17 Sudoeste 33 Sudoeste 0 978.4 0.2 87
2019-04-07 02:00:00 8.7 12 Oeste 28 Sudoeste 0 978.5 0.5 88
2019-04-07 01:00:00 8.8 9 Sudoeste 22 Sudoeste 0 978.3 0.7 83
2019-04-07 00:00:00 8.6 9 Sudoeste 21 Sudoeste 0 978.2 1.7 84
2019-04-06 23:00:00 8.5 5 Oeste 14 Oeste 0 978 1.6 83
2019-04-06 22:00:00 8.8 4 Sudoeste 21 Noroeste 1 977.6 1.7 89
2019-04-06 21:00:00 9.5 7 Sudoeste 16 Sudoeste 0.2 976.5 1.2 83
2019-04-06 20:00:00 8.2 6 Oeste 27 Noroeste 4.6 976.4 1.1 86
2019-04-06 19:00:00 7.6 17 Norte 44 Noroeste 2.2 975.9 0 79
2019-04-06 18:00:00 10.1 8 Noroeste 43 Noroeste 1.6 975.3 0.5 80
2019-04-06 17:00:00 11.9 15 Oeste 41 Sudoeste 0.4 975.3 0.3 64
2019-04-06 16:00:00 8.1 19 Oeste 55 Noroeste 1.4 975.9 0.4 81
2019-04-06 15:00:00 12.7 15 Noroeste 42 Sudoeste 0 974.8 -0.5 54
2019-04-06 14:00:00 11.8 11 Oeste 41 Sudoeste 0.4 975 0 72
2019-04-06 13:00:00 10.9 14 Oeste 37 Oeste 0.8 975.5 0.5 73
2019-04-06 12:00:00 10.9 20 Oeste 46 Sudoeste 0 975.3 0.4 64
2019-04-06 11:00:00 10.6 22 Sudoeste 48 Sudoeste 0 975 0.5 68
2019-04-06 10:00:00 9.1 13 Sudoeste 27 Sudoeste 0 975 0.8 76
2019-04-06 09:00:00 7.5 11 Sudoeste 25 Sudoeste 0 974.9 0.9 86
2019-04-06 08:00:00 7.2 8 Oeste 21 Sudoeste 0 974.5 0.6 90
2019-04-06 07:00:00 6.9 8 Sudoeste 23 Sudoeste 0 974.2 0.1 91
2019-04-06 06:00:00 7.1 8 Oeste 20 Oeste 0 974 -0.4 88
2019-04-06 05:00:00 6.8 10 Oeste 22 Sudoeste 0 973.9 -0.6 90
2019-04-06 04:00:00 6.9 10 Sudoeste 23 Sudoeste 0 974.1 -0.1 87
2019-04-06 03:00:00 7.2 12 Sudoeste 29 Sudoeste 0 974.4 0.7 87
2019-04-06 02:00:00 7.5 13 Sudoeste 27 Sudoeste 0 974.5 1.1 84
2019-04-06 01:00:00 6.9 15 Sudoeste 30 Oeste 0 974.2 1.9 83
2019-04-06 00:00:00 7.7 14 Sudoeste 25 Oeste 0 973.7 2 82
2019-04-05 23:00:00 8 13 Sudoeste 29 Oeste 0 973.4 2.4 81
2019-04-05 22:00:00 8.1 14 Sudoeste 27 Sudoeste 0 972.3 2.1 83
2019-04-05 21:00:00 8.7 13 Sudoeste 36 Sudoeste 0.2 971.7 1.6 77
2019-04-05 20:00:00 8.7 17 Sudoeste 54 Oeste 0 971 0.7 74
2019-04-05 19:00:00 12.1 19 Oeste 39 Oeste 0 970.2 0.1 49
2019-04-05 18:00:00 12 23 Sudoeste 51 Sudoeste 0 970.1 -0.3 58
2019-04-05 17:00:00 11.6 15 Oeste 44 Noroeste 0.4 970.3 -0.3 57
2019-04-05 16:00:00 12.3 14 Oeste 40 Oeste 0 970.1 -1 53
2019-04-05 15:00:00 10.9 18 Oeste 45 Sudoeste 0 970.4 0.3 62
2019-04-05 14:00:00 9.8 14 Oeste 31 Oeste 0.2 970.6 1.2 66
2019-04-05 13:00:00 8.4 12 Oeste 31 Noroeste 0 971.1 2.5 79
2019-04-05 12:00:00 6.6 12 Noroeste 40 Oeste 0.2 970.1 1.7 81
2019-04-05 11:00:00 7.8 15 Oeste 34 Oeste 2 969.4 0.9 89
2019-04-05 10:00:00 8.6 10 Sudoeste 23 Sudoeste 1.8 968.6 0.2 86
2019-04-05 09:00:00 8.5 8 Sur 24 Sudoeste 0.4 968.4 -0.2 87
2019-04-05 08:00:00 8.8 9 Sudoeste 21 Sudoeste 0.4 968.5 -1.3 85
2019-04-05 07:00:00 9 12 Sudoeste 26 Sudoeste 0 968.4 -2 85
2019-04-05 06:00:00 8.5 10 Sur 25 Sudoeste 0 968.6 -2.1 88
2019-04-05 05:00:00 8 10 Sur 20 Sudoeste 2.2 969.8 -1.5 87
2019-04-05 04:00:00 8.5 13 Sudoeste 29 Sudoeste 0.4 970.4 -1.1 81
2019-04-05 03:00:00 8.7 7 Sur 16 Sudoeste 0 970.7 -0.3 90
2019-04-05 02:00:00 8.8 8 Sudoeste 26 Oeste 0.4 971.3 0.7 87
2019-04-05 01:00:00 9.7 9 Oeste 34 Oeste 0 971.5 1 74
2019-04-05 00:00:00 12.5 9 Oeste 28 Oeste 0 971 0.5 45
2019-04-04 23:00:00 13.2 6 Oeste 20 Oeste 0 970.6 0.2 41
2019-04-04 22:00:00 13.5 6 Oeste 25 Oeste 0 970.5 -0.1 36
2019-04-04 21:00:00 14.6 9 Oeste 34 Oeste 0 970.5 -0.4 26
2019-04-04 20:00:00 16.9 12 Oeste 33 Oeste 0 970.4 -1.1 22
2019-04-04 19:00:00 17.7 12 Oeste 32 Sudoeste 0 970.6 -1.8 16
2019-04-04 18:00:00 18.1 13 Sudoeste 34 Oeste 0 970.9 -2.3 17
2019-04-04 17:00:00 17.8 12 Oeste 26 Oeste 0 971.5 -2.4 20
2019-04-04 16:00:00 17.4 13 Sudoeste 29 Sudoeste 0 972.4 -2.1 21
2019-04-04 15:00:00 16.1 6 Noroeste 19 Sudoeste 0 973.2 -1.6 26
2019-04-04 14:00:00 15.4 3 Sur 12 Este 0 973.9 -0.8 26
2019-04-04 13:00:00 13.8 4 Este 12 Sur 0 974.5 -0.3 30
2019-04-04 12:00:00 12 3 Este 11 Noroeste 0 974.8 0.6 34
2019-04-04 11:00:00 10.2 3 Este 13 Sudoeste 0 974.7 1.1 40
2019-04-04 10:00:00 7.6 8 Sudoeste 14 Sudoeste 0 974.8 1.6 51
2019-04-04 09:00:00 4.3 6 Sudoeste 13 Oeste 0 974.2 1.1 63
2019-04-04 08:00:00 4.6 5 Sudoeste 10 Sudoeste 0 973.6 0.5 58
2019-04-04 07:00:00 6 7 Sudoeste 22 Noroeste 0 973.2 -0.1 51
2019-04-04 06:00:00 6.8 6 Oeste 16 Noroeste 0 973.1 -0.7 48
2019-04-04 05:00:00 7.5 12 Noroeste 28 Noroeste 0 973.1 -1.2 48
2019-04-04 04:00:00 8.4 13 Noroeste 26 Noroeste 0 973.3 -1 46
2019-04-04 03:00:00 8.8 6 Noroeste 19 Noroeste 0 973.8 -0.4 44
2019-04-04 02:00:00 9.9 8 Noroeste 23 Noroeste 0 974.3 0.1 38
2019-04-04 01:00:00 10 9 Noroeste 20 Noroeste 0 974.3 0.5 40
2019-04-04 00:00:00 11 5 Norte 21 Norte 0 974.2 0.9 39
2019-04-03 23:00:00 12.3 6 Norte 23 Norte 0 974.2 1 35
2019-04-03 22:00:00 13.7 10 Norte 27 Norte 0 973.8 0.7 30
2019-04-03 21:00:00 15.2 11 Norte 32 Noroeste 0 973.3 -0.1 28
2019-04-03 20:00:00 17.3 18 Noroeste 39 Noroeste 0 973.2 -1 23
2019-04-03 19:00:00 18.6 17 Noroeste 49 Oeste 0 973.1 -2 21
2019-04-03 18:00:00 19.7 13 Oeste 36 Noroeste 0 973.4 -2.4 23
2019-04-03 17:00:00 19.3 13 Oeste 34 Oeste 0 974.2 -2.4 30
2019-04-03 16:00:00 18.7 12 Oeste 38 Oeste 0 975.1 -2.2 35
2019-04-03 15:00:00 17.4 13 Oeste 34 Sudoeste 0 975.8 -2.1 43
2019-04-03 14:00:00 16.1 15 Sudoeste 33 Sudoeste 0 976.6 -1.7 43
2019-04-03 13:00:00 14.1 12 Oeste 28 Sudoeste 0 977.3 -1.5 56
2019-04-03 12:00:00 12.2 9 Oeste 24 Sudoeste 0 977.9 -0.9 65
2019-04-03 11:00:00 10.4 13 Sudoeste 29 Sudoeste 0 978.3 -0.7 77
2019-04-03 10:00:00 8.5 10 Oeste 24 Oeste 0 978.8 -0.5 88
2019-04-03 09:00:00 8.2 8 Oeste 24 Oeste 0 978.8 -0.7 92
2019-04-03 08:00:00 8.2 9 Oeste 18 Sudoeste 0 979 -0.9 92
2019-04-03 07:00:00 8.8 5 Oeste 18 Sudoeste 0 979.3 -1.2 89
2019-04-03 06:00:00 9.7 9 Sudoeste 21 Sudoeste 0 979.5 -1.5 87
2019-04-03 05:00:00 10 8 Sudoeste 16 Sudoeste 0 979.9 -1.7 85
2019-04-03 04:00:00 10.4 6 Sudoeste 13 Sudoeste 0 980.5 -1.4 82
2019-04-03 03:00:00 11.3 7 Sudoeste 15 Sudoeste 0 981 -1 76
2019-04-03 02:00:00 12.6 8 Oeste 17 Oeste 0 981.6 -0.4 69
2019-04-03 01:00:00 13 6 Oeste 13 Sudoeste 0 981.9 0.3 68
2019-04-03 00:00:00 13.5 6 Sudoeste 12 Sudoeste 0 982 0.7 63
2019-04-02 23:00:00 14.6 6 Sudoeste 13 Sudoeste 0 982 0.5 59
2019-04-02 22:00:00 16.1 6 Sudoeste 14 Sudoeste 0 981.6 0.1 54
2019-04-02 21:00:00 18.6 9 Sudoeste 26 Sudoeste 0 981.3 -0.7 43
2019-04-02 20:00:00 20.4 12 Oeste 27 Sudoeste 0 981.5 -1.1 35
2019-04-02 19:00:00 21.6 10 Oeste 37 Sudoeste 0 981.5 -1.7 30
2019-04-02 18:00:00 21.7 13 Sudoeste 29 Oeste 0 982 -1.8 31
2019-04-02 17:00:00 21.5 11 Oeste 27 Oeste 0 982.6 -2.1 34
2019-04-02 16:00:00 20.7 7 Oeste 22 Noroeste 0 983.2 -2.3 37
2019-04-02 15:00:00 18.8 5 Oeste 15 Noroeste 0 983.8 -1.8 48
2019-04-02 14:00:00 17.7 4 Sudoeste 13 Sudoeste 0 984.7 -0.7 58
2019-04-02 13:00:00 15.9 5 Oeste 14 Sudoeste 0 985.5 0.5 66
2019-04-02 12:00:00 13.1 4 Sudoeste 12 Oeste 0 985.6 1.1 82
2019-04-02 11:00:00 11.4 6 Noroeste 12 Noroeste 0 985.4 1.5 89
2019-04-02 10:00:00 9.8 0 Calma 6 Noroeste 0 985 0.9 96
2019-04-02 09:00:00 8.1 3 Norte 10 Norte 0 984.5 0.6 95
2019-04-02 08:00:00 8.8 4 Sudeste 6 Sudeste 0 983.9 0.1 94
2019-04-02 07:00:00 8.6 2 Sudoeste 7 Sudeste 0 984.1 -0.3 94
2019-04-02 06:00:00 9.3 3 Sur 9 Sur 0 983.9 -0.8 94
2019-04-02 05:00:00 9.4 6 Sur 9 Sur 0 983.8 -0.6 93
2019-04-02 04:00:00 9.9 2 Sur 8 Sudoeste 0 984.4 0.2 91
2019-04-02 03:00:00 10.6 4 Sudoeste 7 Sur 0 984.7 0.8 91
2019-04-02 02:00:00 11.2 4 Sur 7 Sur 0 984.4 0.9 90
2019-04-02 01:00:00 11.8 3 Sudoeste 6 Sudoeste 0 984.2 1.4 88
2019-04-02 00:00:00 12.5 0 Calma 10 Noroeste 0 983.9 1.8 85
2019-04-01 23:00:00 12.8 4 Noroeste 10 Sudoeste 0 983.5 2.3 88
2019-04-01 22:00:00 13.1 7 Sudoeste 21 Sudoeste 0 982.8 1.8 85
2019-04-01 21:00:00 14.2 10 Sudoeste 22 Oeste 0 982.1 1.6 75
2019-04-01 20:00:00 15.3 4 Oeste 14 Noroeste 0 981.2 0.2 70
2019-04-01 19:00:00 15.6 6 Este 26 Sudeste 0 981 0.1 73
2019-04-01 18:00:00 14.2 6 Este 30 Sudeste 1.2 980.5 -1 68
2019-04-01 17:00:00 15.4 11 Sur 33 Sur 0 981 -1.3 60
2019-04-01 16:00:00 17.9 5 Nordeste 16 Norte 0 980.9 -1.5 53
2019-04-01 15:00:00 17.5 5 Nordeste 15 Norte 0 981.5 -0.8 57
2019-04-01 14:00:00 15.9 6 Norte 14 Norte 0 982.3 0.3 71
2019-04-01 13:00:00 14.9 4 Nordeste 11 Norte 0 982.4 1.2 76
2019-04-01 12:00:00 13 4 Norte 7 Noroeste 0.4 982.3 1.7 92
2019-04-01 11:00:00 12.4 0 Calma 7 Sur 2 982 1.7 90
2019-04-01 10:00:00 12.2 0 Calma 10 Sur 0 981.2 1.3 89
2019-04-01 09:00:00 12.2 4 Este 11 Este 0 980.6 0.7 86
2019-04-01 08:00:00 12.1 5 Este 11 Este 0.2 980.3 0.4 87
2019-04-01 07:00:00 12.4 5 Este 14 Este 0 979.9 -0.1 85
2019-04-01 06:00:00 12.7 5 Este 13 Este 0 979.9 -0.2 82
2019-04-01 05:00:00 12.8 6 Este 15 Este 0 979.9 -0.4 80
2019-04-01 04:00:00 13.3 5 Este 13 Este 0 980 -0.1 80
2019-04-01 03:00:00 13.4 5 Este 11 Este 0.2 980.1 0.1 80
2019-04-01 02:00:00 13.3 4 Nordeste 9 Nordeste 0 980.3 0.5 78
2019-04-01 01:00:00 13.3 3 Norte 8 Norte 0 980.1 0.8 83
2019-04-01 00:00:00 13.5 3 Norte 8 Noroeste 0 980 1.9 83
2019-03-31 23:00:00 13.7 5 Noroeste 9 Oeste 0 979.8 1.9 79
2019-03-31 22:00:00 14.3 4 Norte 17 Norte 0 979.3 1.3 78
2019-03-31 21:00:00 14.2 7 Sudoeste 25 Sur 0 978.1 0.4 76
2019-03-31 20:00:00 14.7 8 Sudoeste 23 Noroeste 0.8 977.9 0.1 77
2019-03-31 19:00:00 15.8 8 Oeste 24 Noroeste 0 978 -0.3 59
2019-03-31 18:00:00 17.6 10 Nordeste 32 Sudoeste 0 977.7 -1.3 55
2019-03-31 17:00:00 20.9 8 Sudeste 22 Este 0 977.8 -2.1 39
2019-03-31 16:00:00 19.7 3 Nordeste 10 Nordeste 0 978.3 -2.3 43
2019-03-31 15:00:00 19.6 4 Nordeste 17 Nordeste 0 979 -1.8 42
2019-03-31 14:00:00 19.5 6 Nordeste 14 Nordeste 0 979.9 -0.9 48
2019-03-31 13:00:00 16.5 4 Norte 12 Norte 0 980.6 -0.1 61
2019-03-31 12:00:00 14.9 5 Norte 13 Noroeste 0 980.8 0.6 66
2019-03-31 11:00:00 14.5 0 Calma 7 Nordeste 0 980.8 0.8 69
2019-03-31 10:00:00 12.4 2 Noroeste 5 Nordeste 0 980.7 0.8 76
2019-03-31 09:00:00 10.8 0 Calma 8 Noroeste 0 980.2 -0.2 85
2019-03-31 08:00:00 10.6 4 Sudoeste 13 Sudeste 0 980 -0.6 87
2019-03-31 07:00:00 12 3 Sudeste 8 Sudeste 0.2 979.9 -1.4 84
2019-03-31 06:00:00 12.1 3 Sur 11 Sur 0 980.4 -1.2 79
2019-03-31 05:00:00 12.5 5 Nordeste 11 Nordeste 0 980.6 -1.6 80
2019-03-31 03:00:00 13.1 7 Sudeste 12 Sudeste 0 981.6 -1.1 73
2019-03-31 01:00:00 14.3 6 Sur 12 Este 0 982.2 -0.1 66
2019-03-31 00:00:00 15.4 7 Sudeste 18 Nordeste 0 982.6 1.4 60
2019-03-30 23:00:00 16.2 4 Nordeste 22 Sudeste 0 982.7 1.9 56
2019-03-30 22:00:00 16.7 10 Sudeste 28 Este 0.4 982.3 1.3 57
2019-03-30 21:00:00 19 6 Nordeste 12 Nordeste 0 981.2 -0.1 31
2019-03-30 20:00:00 20.6 5 Nordeste 17 Nordeste 0 980.8 -0.7 28
2019-03-30 19:00:00 22.2 8 Nordeste 22 Norte 0 981 -1.3 24
2019-03-30 18:00:00 23.2 6 Este 22 Nordeste 0 981.3 -1.9 22
2019-03-30 17:00:00 23.2 8 Nordeste 22 Este 0 981.5 -2.7 23
2019-03-30 16:00:00 22.9 7 Nordeste 24 Sudeste 0 982.3 -3 27
2019-03-30 15:00:00 21.9 12 Este 32 Nordeste 0 983.2 -3.1 26
2019-03-30 14:00:00 21.4 10 Nordeste 27 Este 0 984.2 -2.8 30
2019-03-30 13:00:00 19.7 12 Nordeste 29 Sudeste 0 985.3 -1.8 32
2019-03-30 12:00:00 18.1 9 Este 21 Nordeste 0 986.3 -0.8 37
2019-03-30 11:00:00 16.1 7 Nordeste 19 Nordeste 0 987 0.2 45
2019-03-30 10:00:00 13.1 5 Nordeste 13 Este 0 987.1 0.3 55
2019-03-30 09:00:00 9.6 4 Nordeste 14 Nordeste 0.4 987.1 0.3 63
2019-03-30 08:00:00 10.5 4 Nordeste 15 Este 0 986.8 -0.2 55
2019-03-30 07:00:00 10.8 6 Nordeste 14 Este 0 986.8 -0.4 48
2019-03-30 06:00:00 11.7 7 Este 14 Este 0 986.8 -0.5 58
2019-03-30 05:00:00 10.9 4 Este 8 Norte 0 987 -0.2 47
2019-03-30 04:00:00 9.7 4 Nordeste 8 Nordeste 0 987.2 0.1 47
2019-03-30 03:00:00 9.6 4 Noroeste 10 Noroeste 0 987.3 0 46
2019-03-30 02:00:00 10.9 2 Nordeste 7 Nordeste 0 987.2 -0.1 46
2019-03-30 01:00:00 11.4 2 Nordeste 7 Nordeste 0 987.1 -0.1 34
2019-03-30 00:00:00 12.7 5 Sudeste 13 Sur 0 987.3 0.4 29
2019-03-29 23:00:00 13.8 9 Sudeste 14 Este 0 987.3 0.8 24
2019-03-29 22:00:00 16.2 4 Este 12 Nordeste 0 987.2 0.8 22
2019-03-29 21:00:00 17.3 6 Nordeste 12 Nordeste 0 986.9 0.5 20
2019-03-29 20:00:00 18.9 7 Nordeste 19 Nordeste 0 986.5 -0.3 17
2019-03-29 19:00:00 20.7 7 Nordeste 22 Nordeste 0 986.4 -1 14
2019-03-29 18:00:00 21.4 10 Nordeste 23 Nordeste 0 986.4 -1.8 13
2019-03-29 17:00:00 21.8 5 Nordeste 24 Sudeste 0 986.8 -2.2 14
2019-03-29 16:00:00 21.2 9 Este 26 Sudeste 0 987.4 -2.1 13
2019-03-29 15:00:00 21.1 9 Sudeste 37 Nordeste 0 988.2 -2.2 13
2019-03-29 14:00:00 20.3 10 Este 26 Este 0 989 -1.8 14
2019-03-29 13:00:00 19.2 5 Nordeste 23 Nordeste 0 989.5 -1.6 17
2019-03-29 12:00:00 17.5 7 Este 23 Este 0 990.4 -0.8 19
2019-03-29 11:00:00 15.8 9 Este 24 Sudeste 0 990.8 0 24
2019-03-29 10:00:00 12.3 8 Este 18 Este 0 991.1 0.8 34
2019-03-29 09:00:00 10.5 5 Este 12 Nordeste 0 991.2 1.2 39
2019-03-29 08:00:00 7 5 Nordeste 11 Nordeste 0 990.8 1.1 49
2019-03-29 07:00:00 7.4 2 Este 14 Sudeste 0 990.3 0.4 49
2019-03-29 06:00:00 6.7 9 Sudeste 20 Este 0 990 0.3 50
2019-03-29 05:00:00 9.4 9 Este 17 Este 0 989.7 -0.1 42
2019-03-29 04:00:00 8.3 5 Nordeste 10 Nordeste 0 989.9 0.2 44
2019-03-29 03:00:00 9.7 0 Calma 11 Sudeste 0 989.7 0.1 37
2019-03-29 02:00:00 9.6 5 Sur 13 Sudeste 0 989.8 0.1 32
2019-03-29 01:00:00 11.4 6 Este 15 Este 0 989.7 0.3 28
2019-03-29 00:00:00 12.1 8 Sudeste 15 Sudeste 0 989.6 0.7 24
2019-03-28 23:00:00 12.8 3 Nordeste 11 Sur 0 989.7 1 29
2019-03-28 22:00:00 14.7 6 Sur 12 Sudeste 0 989.4 0.9 20
2019-03-28 21:00:00 16.8 0 Calma 3 Sudeste 0 988.9 0.2 20
2019-03-28 20:00:00 19.9 2 Sudeste 18 Este 0 988.7 -0.3 13
2019-03-28 19:00:00 21.6 8 Este 26 Sudeste 0 988.5 -1.1 11
2019-03-28 18:00:00 21.9 10 Este 27 Este 0 988.7 -1.8 11
2019-03-28 17:00:00 22 13 Nordeste 37 Este 0 989 -2.3 10
2019-03-28 16:00:00 22 13 Este 32 Este 0 989.6 -2.6 12
2019-03-28 15:00:00 21.1 14 Este 32 Sudeste 0 990.5 -2.1 12
2019-03-28 14:00:00 20.5 13 Este 32 Este 0 991.3 -1.7 11
2019-03-28 13:00:00 18.8 16 Este 35 Este 0 992.2 -0.9 13
2019-03-28 12:00:00 17.7 17 Este 39 Este 0 992.6 -0.3 15
2019-03-28 11:00:00 16 12 Este 30 Este 0 993 0.5 25
2019-03-28 10:00:00 13 10 Este 19 Este 0 993.1 1.2 39
2019-03-28 09:00:00 10.2 4 Sudeste 11 Este 0 992.9 1.2 55
2019-03-28 08:00:00 6.8 5 Sudeste 16 Este 0 992.5 0.9 63
2019-03-28 07:00:00 9.1 7 Este 15 Sudeste 0 991.9 0.5 54
2019-03-28 06:00:00 7.4 7 Sudeste 14 Sudeste 0 991.7 0.4 59
2019-03-28 05:00:00 7.8 7 Sudeste 12 Sudeste 0 991.6 0.6 52
2019-03-28 04:00:00 9.5 0 Calma 8 Sudeste 0 991.4 0.5 41
2019-03-28 03:00:00 10.3 4 Sudeste 12 Este 0 991.3 0.8 29
2019-03-28 02:00:00 11.3 5 Nordeste 8 Nordeste 0 991 1 28
2019-03-28 01:00:00 11.7 3 Norte 12 Nordeste 0 990.9 1.4 26
2019-03-28 00:00:00 11.5 4 Sudeste 14 Sudeste 0 990.5 1.5 26
2019-03-27 23:00:00 14.9 9 Este 24 Este 0 990 1.7 18
2019-03-27 22:00:00 16.3 12 Este 23 Este 0 989.5 1.6 17
2019-03-27 21:00:00 18.1 10 Este 21 Sudeste 0 989 1.4 15
2019-03-27 20:00:00 19.4 9 Este 24 Este 0 988.3 0.6 16
2019-03-27 19:00:00 21.2 11 Este 29 Este 0 987.9 -0.2 13
2019-03-27 18:00:00 21.6 14 Este 36 Este 0 987.6 -0.9 13
2019-03-27 17:00:00 21.9 13 Este 38 Este 0 987.7 -1.8 13
2019-03-27 16:00:00 21.8 16 Este 39 Nordeste 0 988.1 -2.1 13
2019-03-27 15:00:00 21.1 16 Este 35 Este 0 988.5 -2.1 14
2019-03-27 14:00:00 19.9 14 Nordeste 36 Nordeste 0 989.5 -1.1 19
2019-03-27 13:00:00 18.7 13 Este 32 Este 0 990.2 0.1 21
2019-03-27 12:00:00 16.7 14 Este 31 Nordeste 0 990.6 0.7 25
2019-03-27 11:00:00 14.6 14 Nordeste 30 Nordeste 0 990.6 1.5 34
2019-03-27 10:00:00 13.3 14 Este 29 Nordeste 0 990.1 2.1 41
2019-03-27 09:00:00 11.7 8 Este 20 Este 0 989.9 2.7 50
2019-03-27 08:00:00 9.7 8 Este 20 Este 0 989.1 2.5 58
2019-03-27 07:00:00 9.1 8 Sudeste 24 Sudeste 0 988 2.1 58
2019-03-27 06:00:00 11.3 9 Este 24 Este 0 987.2 1.5 51
2019-03-27 05:00:00 12.2 9 Este 26 Este 0 986.6 1.2 46
2019-03-27 04:00:00 13.8 13 Este 32 Este 0 985.9 1.1 41
2019-03-27 03:00:00 14.2 11 Este 31 Este 0 985.7 1.8 42
2019-03-27 02:00:00 14.9 9 Este 23 Este 0 985.4 2.1 44
2019-03-27 01:00:00 16.3 9 Este 25 Este 0 984.8 2.2 39
2019-03-27 00:00:00 17.6 13 Nordeste 34 Este 0 983.9 2 32
2019-03-26 23:00:00 18.8 13 Este 40 Este 0 983.3 2.3 28
2019-03-26 22:00:00 19.6 11 Este 35 Este 0 982.6 2.2 26
2019-03-26 21:00:00 21.1 13 Este 32 Nordeste 0 981.9 1.8 22
2019-03-26 20:00:00 22.5 10 Este 35 Este 0 981 1.1 18
2019-03-26 19:00:00 24.5 12 Este 41 Nordeste 0 980.4 0.3 13
2019-03-26 18:00:00 25.6 14 Este 40 Este 0 980.1 -0.5 12
2019-03-26 17:00:00 26 17 Nordeste 43 Este 0 979.9 -1.6 13
2019-03-26 16:00:00 25.6 18 Este 45 Nordeste 0 980.1 -2.3 13
2019-03-26 15:00:00 25.1 21 Este 47 Este 0 980.6 -2.4 13
2019-03-26 14:00:00 23.9 19 Este 46 Nordeste 0 981.5 -1.5 15
2019-03-26 13:00:00 22.4 18 Este 42 Nordeste 0 982.4 -0.5 19
2019-03-26 12:00:00 20.3 16 Este 37 Este 0 983 0.2 21
2019-03-26 11:00:00 18.1 14 Este 35 Este 0 983 0.4 25
2019-03-26 10:00:00 15.6 9 Este 28 Este 0 982.9 0.6 28
2019-03-26 09:00:00 13.2 9 Este 22 Este 0 982.8 0.5 30
2019-03-26 08:00:00 12.5 10 Este 21 Este 0 982.6 0.3 29
2019-03-26 07:00:00 12.5 10 Este 21 Este 0 982.3 -0.3 30
2019-03-26 06:00:00 12.4 6 Este 15 Este 0 982.3 -0.4 30
2019-03-26 05:00:00 11.2 6 Sudeste 14 Este 0 982.3 -0.3 34
2019-03-26 04:00:00 10.8 6 Sudeste 14 Este 0 982.6 -0.3 38
2019-03-26 03:00:00 12.7 6 Nordeste 15 Sudeste 0 982.7 -0.2 34
2019-03-26 02:00:00 14.7 5 Este 14 Este 0 982.6 -0.3 30
2019-03-26 01:00:00 15.1 5 Este 15 Este 0 982.9 0.1 29
2019-03-26 00:00:00 15.1 3 Este 11 Nordeste 0 982.9 0.4 31
2019-03-25 23:00:00 16.8 5 Nordeste 15 Sudeste 0 982.9 0.5 26
2019-03-25 22:00:00 18.4 8 Nordeste 17 Este 0 982.8 0.7 24
2019-03-25 21:00:00 20.5 9 Nordeste 19 Nordeste 0 982.5 0.1 19
2019-03-25 20:00:00 22 8 Nordeste 22 Este 0 982.4 -0.5 14
2019-03-25 19:00:00 23.9 10 Este 31 Este 0 982.1 -1.6 12
2019-03-25 18:00:00 24.7 12 Este 35 Este 0 982.4 -2.3 12
2019-03-25 17:00:00 24.9 13 Este 35 Este 0 982.9 -3 12
2019-03-25 16:00:00 24.3 16 Este 41 Este 0 983.7 -3.3 12
2019-03-25 15:00:00 24.3 14 Este 40 Nordeste 0 984.7 -3.1 13
2019-03-25 14:00:00 23.4 14 Nordeste 39 Este 0 985.9 -2.5 15
2019-03-25 13:00:00 22.7 10 Este 37 Este 0 987 -1.3 21
2019-03-25 12:00:00 20.5 8 Este 26 Este 0 987.8 -0.3 29
2019-03-25 11:00:00 18.5 12 Este 23 Este 0 988.4 0.4 32
2019-03-25 10:00:00 15.3 10 Este 19 Este 0 988.3 0.5 44
2019-03-25 09:00:00 11.9 6 Este 13 Este 0 988.1 0.7 60
2019-03-25 08:00:00 8.7 7 Este 13 Este 0 988 0.5 73
2019-03-25 07:00:00 8 3 Sudeste 10 Este 0 987.8 0.1 70
2019-03-25 06:00:00 8.5 5 Sudeste 13 Este 0 987.4 -0.5 69
2019-03-25 05:00:00 8.4 0 Calma 5 Norte 0 987.5 -0.4 68
2019-03-25 04:00:00 9.1 2 Sudoeste 7 Sudeste 0 987.7 -0.3 63
2019-03-25 03:00:00 10.8 3 Este 7 Norte 0 987.9 -0.1 59
2019-03-25 02:00:00 11.1 4 Sudeste 8 Sur 0 987.9 -0.2 54
2019-03-25 01:00:00 11.9 6 Oeste 11 Este 0 988 0.2 54
2019-03-25 00:00:00 14.5 3 Este 8 Nordeste 0 988 0.6 46